createdAt,value
2023-01-31T00:01:33.272Z,102308.13
2023-01-31T00:06:43.719Z,102310.81
2023-01-31T00:11:45.473Z,102304.50
2023-01-31T00:16:47.060Z,102302.72
2023-01-31T00:21:48.592Z,102293.97
2023-01-31T00:26:56.818Z,102291.94
2023-01-31T00:31:58.657Z,102288.22
2023-01-31T00:37:00.328Z,102271.22
2023-01-31T00:42:01.832Z,102267.91
2023-01-31T00:47:03.368Z,102256.25
2023-01-31T00:52:05.123Z,102250.56
2023-01-31T00:57:06.646Z,102235.91
2023-01-31T01:02:08.156Z,102236.72
2023-01-31T01:07:09.683Z,102228.28
2023-01-31T01:12:11.192Z,102232.09
2023-01-31T01:17:12.679Z,102210.00
2023-01-31T01:22:16.895Z,102227.66
2023-01-31T01:27:18.512Z,102227.06
2023-01-31T01:32:20.082Z,102231.88
2023-01-31T01:37:21.615Z,102232.69
2023-01-31T01:42:25.532Z,102223.75
2023-01-31T01:47:50.719Z,102226.69
2023-01-31T01:52:58.267Z,102226.47
2023-01-31T01:58:07.835Z,102214.34
2023-01-31T02:03:09.591Z,102212.16
2023-01-31T02:08:13.422Z,102210.66
2023-01-31T02:13:16.031Z,102207.53
2023-01-31T02:18:21.373Z,102201.75
2023-01-31T02:23:54.783Z,102198.13
2023-01-31T02:29:23.391Z,102182.69
2023-01-31T02:34:39.779Z,102182.91
2023-01-31T02:40:06.290Z,102176.09
2023-01-31T02:45:20.660Z,102179.78
2023-01-31T02:50:37.526Z,102178.53
2023-01-31T02:56:06.764Z,102190.78
2023-01-31T03:01:15.237Z,102185.88
2023-01-31T03:06:27.019Z,102174.50
2023-01-31T03:11:54.060Z,102169.59
2023-01-31T03:17:30.941Z,102155.41
2023-01-31T03:22:40.169Z,102150.69
2023-01-31T03:27:46.241Z,102150.69
2023-01-31T03:33:00.769Z,102147.47
2023-01-31T03:38:18.845Z,102158.28
2023-01-31T03:43:31.857Z,102138.75
2023-01-31T03:48:38.210Z,102131.78
2023-01-31T03:54:07.377Z,102124.16
2023-01-31T03:59:20.122Z,102124.50
2023-01-31T04:04:26.643Z,102113.91
2023-01-31T04:09:28.221Z,102101.56
2023-01-31T04:14:30.168Z,102104.06
2023-01-31T04:19:32.141Z,102102.88
2023-01-31T04:24:33.837Z,102081.03
2023-01-31T04:29:35.312Z,102085.16
2023-01-31T04:34:40.618Z,102081.16
2023-01-31T04:39:42.230Z,102073.22
2023-01-31T04:44:43.771Z,102072.16
2023-01-31T04:49:45.355Z,102072.44
2023-01-31T04:54:46.988Z,102060.72
2023-01-31T04:59:50.251Z,102063.09
2023-01-31T05:04:51.792Z,102067.34
2023-01-31T05:09:53.253Z,102055.97
2023-01-31T05:14:54.843Z,102058.78
2023-01-31T05:19:57.103Z,102039.88
2023-01-31T05:24:58.738Z,102041.94
2023-01-31T05:30:00.841Z,102039.53
2023-01-31T05:35:02.925Z,102033.38
2023-01-31T05:40:04.664Z,102041.63
2023-01-31T05:45:07.609Z,102026.78
2023-01-31T05:50:09.577Z,102018.03
2023-01-31T05:55:11.165Z,102010.00
2023-01-31T06:00:14.304Z,102006.00
2023-01-31T06:05:16.662Z,101997.38
2023-01-31T06:10:20.176Z,101990.66
2023-01-31T06:15:22.852Z,101989.69
2023-01-31T06:20:24.571Z,101985.16
2023-01-31T06:25:26.042Z,101973.22
2023-01-31T06:30:27.608Z,101973.84
2023-01-31T06:35:29.595Z,101964.88
2023-01-31T06:40:31.699Z,101960.13
2023-01-31T06:45:33.298Z,101954.81
2023-01-31T06:50:34.845Z,101945.19
2023-01-31T06:55:36.641Z,101949.16
2023-01-31T07:00:38.212Z,101950.34
2023-01-31T07:05:39.788Z,101942.56
2023-01-31T07:10:41.413Z,101919.94
2023-01-31T07:15:43.128Z,101910.19
2023-01-31T07:20:44.710Z,101922.59
2023-01-31T07:25:46.288Z,101926.84
2023-01-31T07:30:48.490Z,101934.16
2023-01-31T07:35:50.127Z,101931.03
2023-01-31T07:40:51.612Z,101918.56
2023-01-31T07:45:53.994Z,101921.81
2023-01-31T07:51:02.381Z,101909.69
2023-01-31T07:56:10.452Z,101911.19
2023-01-31T08:01:39.152Z,101924.09
2023-01-31T08:06:42.438Z,101922.84
2023-01-31T08:11:44.027Z,101917.34
2023-01-31T08:16:45.596Z,101917.44
2023-01-31T08:21:47.127Z,101900.78
2023-01-31T08:26:48.751Z,101877.59
2023-01-31T08:31:52.342Z,101882.25
2023-01-31T08:36:53.937Z,101883.78
2023-01-31T08:41:55.398Z,101877.72
2023-01-31T08:46:59.133Z,101878.44
2023-01-31T08:52:00.689Z,101866.63
2023-01-31T08:57:02.199Z,101839.88
2023-01-31T09:02:03.762Z,101849.47
2023-01-31T09:07:05.331Z,101843.06
2023-01-31T09:12:07.068Z,101845.91
2023-01-31T09:17:10.829Z,101826.19
2023-01-31T09:22:12.366Z,101816.50
2023-01-31T09:27:14.280Z,101830.78
2023-01-31T09:32:15.799Z,101819.56
2023-01-31T09:37:17.402Z,101820.06
2023-01-31T09:42:23.719Z,101816.72
2023-01-31T09:47:30.894Z,101817.00
2023-01-31T09:52:33.363Z,101815.72
2023-01-31T09:57:40.787Z,101808.94
2023-01-31T10:03:03.998Z,101800.72
2023-01-31T10:08:09.379Z,101795.22
2023-01-31T10:13:29.531Z,101803.22
2023-01-31T10:18:37.242Z,101808.78
2023-01-31T10:23:41.575Z,101825.84
2023-01-31T10:29:05.378Z,101823.00
2023-01-31T10:34:17.701Z,101822.88
2023-01-31T10:39:31.932Z,101831.25
2023-01-31T10:44:44.486Z,101844.09
2023-01-31T10:49:50.663Z,101848.56
2023-01-31T10:55:33.304Z,101831.25
2023-01-31T11:00:34.933Z,101828.69
2023-01-31T11:05:41.605Z,101816.31
2023-01-31T11:10:52.945Z,101792.59
2023-01-31T11:15:55.700Z,101808.63
2023-01-31T11:20:59.682Z,101795.97
2023-01-31T11:26:01.442Z,101795.28
2023-01-31T11:31:06.525Z,101795.28
2023-01-31T11:36:14.753Z,101792.56
2023-01-31T11:41:36.822Z,101776.66
2023-01-31T11:46:59.952Z,101774.47
2023-01-31T11:52:28.877Z,101771.97
2023-01-31T11:57:36.033Z,101758.03
2023-01-31T12:02:40.455Z,101760.34
2023-01-31T12:07:50.175Z,101730.94
2023-01-31T12:12:52.660Z,101749.34
2023-01-31T12:17:54.490Z,101759.88
2023-01-31T12:23:20.597Z,101746.81
2023-01-31T12:28:36.838Z,101736.38
2023-01-31T12:33:58.208Z,101718.00
2023-01-31T12:39:28.866Z,101699.75
2023-01-31T12:44:51.904Z,101709.56
2023-01-31T12:50:02.277Z,101706.06
2023-01-31T12:55:03.877Z,101701.34
2023-01-31T13:00:22.579Z,101688.94
2023-01-31T13:05:33.900Z,101714.31
2023-01-31T13:10:40.527Z,101712.91
2023-01-31T13:15:51.549Z,101721.97
2023-01-31T13:21:09.271Z,101726.97
2023-01-31T13:26:22.157Z,101734.00
2023-01-31T13:31:28.298Z,101738.19
2023-01-31T13:36:36.680Z,101734.22
2023-01-31T13:41:39.925Z,101747.41
2023-01-31T13:46:52.763Z,101760.06
2023-01-31T13:51:58.652Z,101772.50
2023-01-31T13:57:02.283Z,101762.47
2023-01-31T14:02:18.210Z,101781.53
2023-01-31T14:07:22.047Z,101761.28
2023-01-31T14:12:23.516Z,101776.09
2023-01-31T14:17:27.913Z,101780.59
2023-01-31T14:22:36.620Z,101772.53
2023-01-31T14:27:44.672Z,101784.50
2023-01-31T14:33:04.609Z,101774.63
2023-01-31T14:38:34.473Z,101796.09
2023-01-31T14:44:22.046Z,101802.34
2023-01-31T14:49:32.353Z,101816.91
2023-01-31T14:55:12.276Z,101826.09
2023-01-31T15:00:13.991Z,101823.19
2023-01-31T15:05:24.723Z,101833.44
2023-01-31T15:11:02.744Z,101844.75
2023-01-31T15:16:10.782Z,101847.56
2023-01-31T15:21:19.947Z,101832.66
2023-01-31T15:26:24.462Z,101836.59
2023-01-31T15:31:41.103Z,101811.19
2023-01-31T15:36:52.694Z,101853.72
2023-01-31T15:41:54.234Z,101848.78
2023-01-31T15:46:58.159Z,101870.16
2023-01-31T15:52:10.250Z,101881.88
2023-01-31T15:57:16.702Z,101895.22
2023-01-31T16:02:39.259Z,101891.25
2023-01-31T16:07:46.690Z,101897.66
2023-01-31T16:12:50.918Z,101909.84
2023-01-31T16:17:55.550Z,101906.16
2023-01-31T16:22:57.458Z,101910.19
2023-01-31T16:28:02.313Z,101902.97
2023-01-31T16:33:03.915Z,101907.38
2023-01-31T16:38:16.440Z,101918.44
2023-01-31T16:43:22.858Z,101908.44
2023-01-31T16:48:28.128Z,101913.88
2023-01-31T16:53:32.798Z,101916.78
2023-01-31T16:58:53.206Z,101921.81
2023-01-31T17:04:05.889Z,101924.50
2023-01-31T17:09:14.022Z,101921.13
2023-01-31T17:14:15.590Z,101919.63
2023-01-31T17:19:17.152Z,101927.69
2023-01-31T17:24:22.545Z,101922.09
2023-01-31T17:29:26.004Z,101925.66
2023-01-31T17:34:27.543Z,101928.63
2023-01-31T17:39:29.101Z,101927.84
2023-01-31T17:44:30.855Z,101921.25
2023-01-31T17:49:34.945Z,101925.06
2023-01-31T17:54:36.510Z,101928.00
2023-01-31T17:59:38.045Z,101936.66
2023-01-31T18:04:39.764Z,101934.44
2023-01-31T18:09:41.300Z,101938.31
2023-01-31T18:14:42.798Z,101940.22
2023-01-31T18:19:44.397Z,101941.78
2023-01-31T18:24:46.014Z,101956.00
2023-01-31T18:29:47.572Z,101948.97
2023-01-31T18:34:49.167Z,101944.63
2023-01-31T18:39:51.592Z,101949.25
2023-01-31T18:44:53.065Z,101947.63
2023-01-31T18:49:54.538Z,101950.13
2023-01-31T18:54:56.039Z,101965.22
2023-01-31T18:59:57.611Z,101957.50
2023-01-31T19:04:59.307Z,101949.91
2023-01-31T19:10:00.794Z,101949.19
2023-01-31T19:15:02.263Z,101958.50
2023-01-31T19:20:05.371Z,101941.72
2023-01-31T19:25:09.213Z,101928.59
2023-01-31T19:30:11.490Z,101937.34
2023-01-31T19:35:13.069Z,101918.84
2023-01-31T19:40:14.716Z,101919.84
2023-01-31T19:45:19.833Z,101927.09
2023-01-31T19:50:24.262Z,101926.13
2023-01-31T19:55:25.807Z,101936.63
2023-01-31T20:00:27.431Z,101929.47
2023-01-31T20:05:28.959Z,101930.53
2023-01-31T20:10:31.199Z,101936.28
2023-01-31T20:15:34.612Z,101928.91
2023-01-31T20:20:36.177Z,101930.44
2023-01-31T20:25:38.075Z,101923.19
2023-01-31T20:30:39.641Z,101926.97
2023-01-31T20:35:41.790Z,101926.44
2023-01-31T20:40:49.476Z,101906.91
2023-01-31T20:45:51.571Z,101910.06
2023-01-31T20:50:56.992Z,101909.09
2023-01-31T20:56:06.632Z,101901.75
2023-01-31T21:01:10.067Z,101889.47
2023-01-31T21:06:11.690Z,101882.44
2023-01-31T21:11:14.126Z,101875.19
2023-01-31T21:16:16.637Z,101876.06
2023-01-31T21:21:23.502Z,101877.91
2023-01-31T21:26:26.816Z,101868.88
2023-01-31T21:31:29.516Z,101885.38
2023-01-31T21:36:33.196Z,101894.25
2023-01-31T21:41:53.273Z,101886.03
2023-01-31T21:46:54.750Z,101887.09
2023-01-31T21:51:56.271Z,101867.47
2023-01-31T21:56:58.119Z,101859.13
2023-01-31T22:01:59.882Z,101863.25
2023-01-31T22:07:01.616Z,101860.66
2023-01-31T22:12:03.230Z,101853.28
2023-01-31T22:17:04.745Z,101858.50
2023-01-31T22:22:06.506Z,101849.09
2023-01-31T22:27:07.964Z,101841.06
2023-01-31T22:32:09.459Z,101845.16
2023-01-31T22:37:11.155Z,101845.72
2023-01-31T22:42:13.015Z,101828.47
2023-01-31T22:47:14.553Z,101831.94
2023-01-31T22:52:16.079Z,101825.81
2023-01-31T22:57:17.670Z,101816.88
2023-01-31T23:02:19.142Z,101814.00
2023-01-31T23:07:20.656Z,101803.94
2023-01-31T23:12:22.202Z,101798.03
2023-01-31T23:17:38.845Z,101796.59
2023-01-31T23:22:41.032Z,101812.06
2023-01-31T23:27:43.584Z,101800.09
2023-01-31T23:32:45.538Z,101783.78
2023-01-31T23:37:47.076Z,101783.47
2023-01-31T23:42:48.651Z,101771.44
2023-01-31T23:47:50.430Z,101772.16
2023-01-31T23:52:52.565Z,101763.88
2023-01-31T23:57:54.154Z,101768.03
